sensor_id;sensor_type;location;lat;lon;timestamp;P1;durP1;ratioP1;P2;durP2;ratioP2
9328;SDS011;4703;48.748;19.142;2023-02-15T00:02:01;24.87;;;17.50;;
9328;SDS011;4703;48.748;19.142;2023-02-15T00:04:28;29.40;;;19.30;;
9328;SDS011;4703;48.748;19.142;2023-02-15T00:07:16;28.37;;;18.03;;
9328;SDS011;4703;48.748;19.142;2023-02-15T00:09:45;31.13;;;19.50;;
9328;SDS011;4703;48.748;19.142;2023-02-15T00:12:13;27.70;;;18.13;;
9328;SDS011;4703;48.748;19.142;2023-02-15T00:14:42;24.93;;;18.43;;
9328;SDS011;4703;48.748;19.142;2023-02-15T00:17:09;27.63;;;17.87;;
9328;SDS011;4703;48.748;19.142;2023-02-15T00:19:36;26.20;;;18.70;;
9328;SDS011;4703;48.748;19.142;2023-02-15T00:22:03;24.73;;;18.40;;
9328;SDS011;4703;48.748;19.142;2023-02-15T00:24:30;24.53;;;18.33;;
9328;SDS011;4703;48.748;19.142;2023-02-15T00:26:58;24.80;;;17.93;;
9328;SDS011;4703;48.748;19.142;2023-02-15T00:29:25;24.23;;;18.30;;
9328;SDS011;4703;48.748;19.142;2023-02-15T00:31:54;29.07;;;18.27;;
9328;SDS011;4703;48.748;19.142;2023-02-15T00:34:25;27.97;;;18.87;;
9328;SDS011;4703;48.748;19.142;2023-02-15T00:36:53;30.73;;;18.70;;
9328;SDS011;4703;48.748;19.142;2023-02-15T00:39:21;26.60;;;17.70;;
9328;SDS011;4703;48.748;19.142;2023-02-15T00:41:50;27.73;;;19.37;;
9328;SDS011;4703;48.748;19.142;2023-02-15T00:44:16;26.60;;;18.30;;
9328;SDS011;4703;48.748;19.142;2023-02-15T00:46:43;28.33;;;17.57;;
9328;SDS011;4703;48.748;19.142;2023-02-15T00:49:11;27.43;;;18.80;;
9328;SDS011;4703;48.748;19.142;2023-02-15T00:51:38;26.80;;;18.10;;
9328;SDS011;4703;48.748;19.142;2023-02-15T00:54:05;30.30;;;18.63;;
9328;SDS011;4703;48.748;19.142;2023-02-15T00:56:33;26.80;;;17.60;;
9328;SDS011;4703;48.748;19.142;2023-02-15T00:59:00;26.10;;;18.53;;
9328;SDS011;4703;48.748;19.142;2023-02-15T01:01:27;32.77;;;17.83;;
9328;SDS011;4703;48.748;19.142;2023-02-15T01:03:54;30.97;;;19.30;;
9328;SDS011;4703;48.748;19.142;2023-02-15T01:06:21;32.67;;;18.70;;
9328;SDS011;4703;48.748;19.142;2023-02-15T01:08:48;24.40;;;16.50;;
9328;SDS011;4703;48.748;19.142;2023-02-15T01:11:16;27.17;;;17.90;;
9328;SDS011;4703;48.748;19.142;2023-02-15T01:13:50;28.37;;;17.13;;
9328;SDS011;4703;48.748;19.142;2023-02-15T01:16:22;28.17;;;18.20;;
9328;SDS011;4703;48.748;19.142;2023-02-15T01:18:52;27.93;;;18.73;;
9328;SDS011;4703;48.748;19.142;2023-02-15T01:21:21;25.80;;;17.70;;
9328;SDS011;4703;48.748;19.142;2023-02-15T01:23:50;30.63;;;19.13;;
9328;SDS011;4703;48.748;19.142;2023-02-15T01:26:17;30.97;;;17.30;;
9328;SDS011;4703;48.748;19.142;2023-02-15T01:28:46;28.50;;;17.57;;
9328;SDS011;4703;48.748;19.142;2023-02-15T01:31:14;25.70;;;16.50;;
9328;SDS011;4703;48.748;19.142;2023-02-15T01:33:44;28.03;;;17.93;;
9328;SDS011;4703;48.748;19.142;2023-02-15T01:36:12;28.77;;;19.17;;
9328;SDS011;4703;48.748;19.142;2023-02-15T01:38:40;34.80;;;19.70;;
9328;SDS011;4703;48.748;19.142;2023-02-15T01:41:08;28.87;;;16.50;;
9328;SDS011;4703;48.748;19.142;2023-02-15T01:43:53;26.97;;;16.83;;
9328;SDS011;4703;48.748;19.142;2023-02-15T01:49:28;30.60;;;16.20;;
9328;SDS011;4703;48.748;19.142;2023-02-15T01:51:54;30.97;;;17.37;;
9328;SDS011;4703;48.748;19.142;2023-02-15T01:54:31;25.90;;;17.80;;
9328;SDS011;4703;48.748;19.142;2023-02-15T01:57:16;26.40;;;17.53;;
9328;SDS011;4703;48.748;19.142;2023-02-15T01:59:49;28.47;;;17.73;;
9328;SDS011;4703;48.748;19.142;2023-02-15T02:02:23;32.90;;;16.73;;
9328;SDS011;4703;48.748;19.142;2023-02-15T02:04:51;31.70;;;18.17;;
9328;SDS011;4703;48.748;19.142;2023-02-15T02:07:26;26.87;;;17.87;;
9328;SDS011;4703;48.748;19.142;2023-02-15T02:09:55;24.60;;;18.07;;
9328;SDS011;4703;48.748;19.142;2023-02-15T02:12:22;31.77;;;19.73;;
9328;SDS011;4703;48.748;19.142;2023-02-15T02:14:51;27.00;;;18.47;;
9328;SDS011;4703;48.748;19.142;2023-02-15T02:38:50;27.23;;;17.67;;
9328;SDS011;4703;48.748;19.142;2023-02-15T02:41:31;31.20;;;16.60;;
9328;SDS011;4703;48.748;19.142;2023-02-15T02:47:11;22.77;;;16.30;;
9328;SDS011;4703;48.748;19.142;2023-02-15T02:49:58;23.30;;;15.90;;
9328;SDS011;4703;48.748;19.142;2023-02-15T02:52:34;22.10;;;15.00;;
9328;SDS011;4703;48.748;19.142;2023-02-15T02:55:16;23.40;;;14.60;;
9328;SDS011;4703;48.748;19.142;2023-02-15T02:57:56;24.67;;;16.23;;
9328;SDS011;4703;48.748;19.142;2023-02-15T03:00:34;24.83;;;14.77;;
9328;SDS011;4703;48.748;19.142;2023-02-15T03:03:16;19.17;;;13.80;;
9328;SDS011;4703;48.748;19.142;2023-02-15T03:06:05;24.53;;;14.60;;
9328;SDS011;4703;48.748;19.142;2023-02-15T03:08:46;30.57;;;17.10;;
9328;SDS011;4703;48.748;19.142;2023-02-15T03:11:17;22.90;;;14.47;;
9328;SDS011;4703;48.748;19.142;2023-02-15T03:13:44;22.13;;;14.47;;
9328;SDS011;4703;48.748;19.142;2023-02-15T03:16:14;29.83;;;16.17;;
9328;SDS011;4703;48.748;19.142;2023-02-15T03:19:07;27.20;;;15.47;;
9328;SDS011;4703;48.748;19.142;2023-02-15T03:21:47;19.63;;;13.87;;
9328;SDS011;4703;48.748;19.142;2023-02-15T03:24:25;27.93;;;15.70;;
9328;SDS011;4703;48.748;19.142;2023-02-15T03:26:58;21.70;;;15.50;;
9328;SDS011;4703;48.748;19.142;2023-02-15T03:29:29;21.27;;;13.63;;
9328;SDS011;4703;48.748;19.142;2023-02-15T03:31:59;30.43;;;15.80;;
9328;SDS011;4703;48.748;19.142;2023-02-15T03:34:29;23.70;;;14.07;;
9328;SDS011;4703;48.748;19.142;2023-02-15T03:37:05;25.17;;;15.03;;
9328;SDS011;4703;48.748;19.142;2023-02-15T03:39:51;29.07;;;15.50;;
9328;SDS011;4703;48.748;19.142;2023-02-15T03:43:00;20.97;;;13.83;;
9328;SDS011;4703;48.748;19.142;2023-02-15T03:45:37;29.50;;;16.00;;
9328;SDS011;4703;48.748;19.142;2023-02-15T03:48:31;26.43;;;14.97;;
9328;SDS011;4703;48.748;19.142;2023-02-15T03:51:05;25.07;;;13.30;;
9328;SDS011;4703;48.748;19.142;2023-02-15T03:53:55;27.30;;;15.07;;
9328;SDS011;4703;48.748;19.142;2023-02-15T03:56:23;23.13;;;13.97;;
9328;SDS011;4703;48.748;19.142;2023-02-15T03:58:50;26.33;;;15.40;;
9328;SDS011;4703;48.748;19.142;2023-02-15T04:01:37;22.57;;;13.20;;
9328;SDS011;4703;48.748;19.142;2023-02-15T04:04:37;24.30;;;13.03;;
9328;SDS011;4703;48.748;19.142;2023-02-15T04:07:09;21.73;;;13.77;;
9328;SDS011;4703;48.748;19.142;2023-02-15T04:09:36;19.70;;;13.60;;
9328;SDS011;4703;48.748;19.142;2023-02-15T04:12:21;27.53;;;14.43;;
9328;SDS011;4703;48.748;19.142;2023-02-15T04:14:49;24.77;;;13.40;;
9328;SDS011;4703;48.748;19.142;2023-02-15T04:17:38;22.20;;;13.93;;
9328;SDS011;4703;48.748;19.142;2023-02-15T04:20:05;19.73;;;13.70;;
9328;SDS011;4703;48.748;19.142;2023-02-15T04:22:52;28.10;;;16.33;;
9328;SDS011;4703;48.748;19.142;2023-02-15T04:25:37;25.33;;;16.27;;
9328;SDS011;4703;48.748;19.142;2023-02-15T04:28:05;29.97;;;17.27;;
9328;SDS011;4703;48.748;19.142;2023-02-15T04:30:33;26.03;;;15.03;;
9328;SDS011;4703;48.748;19.142;2023-02-15T04:33:01;22.47;;;14.83;;
9328;SDS011;4703;48.748;19.142;2023-02-15T04:35:28;23.40;;;15.30;;
9328;SDS011;4703;48.748;19.142;2023-02-15T04:37:57;27.37;;;14.93;;
9328;SDS011;4703;48.748;19.142;2023-02-15T04:40:25;30.10;;;14.73;;
9328;SDS011;4703;48.748;19.142;2023-02-15T04:42:52;56.37;;;34.13;;
9328;SDS011;4703;48.748;19.142;2023-02-15T04:45:19;128.00;;;66.30;;
9328;SDS011;4703;48.748;19.142;2023-02-15T04:47:46;145.20;;;77.67;;
9328;SDS011;4703;48.748;19.142;2023-02-15T04:50:14;111.40;;;60.80;;
9328;SDS011;4703;48.748;19.142;2023-02-15T04:52:41;31.80;;;20.50;;
9328;SDS011;4703;48.748;19.142;2023-02-15T04:55:08;25.70;;;15.13;;
9328;SDS011;4703;48.748;19.142;2023-02-15T04:57:36;27.93;;;15.83;;
9328;SDS011;4703;48.748;19.142;2023-02-15T05:00:03;20.73;;;13.77;;
9328;SDS011;4703;48.748;19.142;2023-02-15T05:02:30;25.10;;;16.17;;
9328;SDS011;4703;48.748;19.142;2023-02-15T05:04:57;24.17;;;15.27;;
9328;SDS011;4703;48.748;19.142;2023-02-15T05:07:25;23.10;;;12.97;;
9328;SDS011;4703;48.748;19.142;2023-02-15T05:09:52;26.10;;;16.70;;
9328;SDS011;4703;48.748;19.142;2023-02-15T05:12:19;25.33;;;15.27;;
9328;SDS011;4703;48.748;19.142;2023-02-15T05:14:46;21.20;;;14.53;;
9328;SDS011;4703;48.748;19.142;2023-02-15T05:17:14;21.70;;;15.33;;
9328;SDS011;4703;48.748;19.142;2023-02-15T05:19:41;21.07;;;13.87;;
9328;SDS011;4703;48.748;19.142;2023-02-15T05:22:08;23.60;;;13.90;;
9328;SDS011;4703;48.748;19.142;2023-02-15T05:24:35;22.83;;;15.10;;
9328;SDS011;4703;48.748;19.142;2023-02-15T05:27:21;26.77;;;14.73;;
9328;SDS011;4703;48.748;19.142;2023-02-15T05:30:07;21.90;;;15.00;;
9328;SDS011;4703;48.748;19.142;2023-02-15T05:32:38;23.03;;;13.37;;
9328;SDS011;4703;48.748;19.142;2023-02-15T05:35:06;23.93;;;15.70;;
9328;SDS011;4703;48.748;19.142;2023-02-15T05:37:33;23.70;;;15.07;;
9328;SDS011;4703;48.748;19.142;2023-02-15T05:40:01;24.83;;;14.30;;
9328;SDS011;4703;48.748;19.142;2023-02-15T05:42:28;28.93;;;16.30;;
9328;SDS011;4703;48.748;19.142;2023-02-15T05:44:55;25.20;;;14.37;;
9328;SDS011;4703;48.748;19.142;2023-02-15T05:47:22;26.63;;;15.50;;
9328;SDS011;4703;48.748;19.142;2023-02-15T05:49:50;23.23;;;15.60;;
9328;SDS011;4703;48.748;19.142;2023-02-15T05:52:17;27.80;;;16.93;;
9328;SDS011;4703;48.748;19.142;2023-02-15T05:54:45;25.77;;;14.73;;
9328;SDS011;4703;48.748;19.142;2023-02-15T05:57:12;28.73;;;17.00;;
9328;SDS011;4703;48.748;19.142;2023-02-15T05:59:40;27.60;;;15.73;;
9328;SDS011;4703;48.748;19.142;2023-02-15T06:02:07;21.70;;;14.30;;
9328;SDS011;4703;48.748;19.142;2023-02-15T06:04:37;95.87;;;48.97;;
9328;SDS011;4703;48.748;19.142;2023-02-15T06:07:04;59.73;;;31.80;;
9328;SDS011;4703;48.748;19.142;2023-02-15T06:09:32;30.40;;;18.27;;
9328;SDS011;4703;48.748;19.142;2023-02-15T06:11:59;27.03;;;15.30;;
9328;SDS011;4703;48.748;19.142;2023-02-15T06:14:27;24.03;;;14.67;;
9328;SDS011;4703;48.748;19.142;2023-02-15T06:16:54;24.80;;;15.50;;
9328;SDS011;4703;48.748;19.142;2023-02-15T06:19:21;25.70;;;15.47;;
9328;SDS011;4703;48.748;19.142;2023-02-15T06:21:49;24.17;;;15.17;;
9328;SDS011;4703;48.748;19.142;2023-02-15T06:24:16;24.17;;;15.13;;
9328;SDS011;4703;48.748;19.142;2023-02-15T06:26:43;21.83;;;15.30;;
9328;SDS011;4703;48.748;19.142;2023-02-15T06:29:10;27.87;;;16.43;;
9328;SDS011;4703;48.748;19.142;2023-02-15T06:31:38;27.20;;;16.47;;
9328;SDS011;4703;48.748;19.142;2023-02-15T06:34:05;29.03;;;15.37;;
9328;SDS011;4703;48.748;19.142;2023-02-15T06:36:32;30.47;;;17.20;;
9328;SDS011;4703;48.748;19.142;2023-02-15T06:38:59;33.30;;;17.73;;
9328;SDS011;4703;48.748;19.142;2023-02-15T06:41:28;26.20;;;15.50;;
9328;SDS011;4703;48.748;19.142;2023-02-15T06:43:56;22.33;;;14.97;;
9328;SDS011;4703;48.748;19.142;2023-02-15T06:46:23;26.70;;;16.93;;
9328;SDS011;4703;48.748;19.142;2023-02-15T06:48:50;27.97;;;17.53;;
9328;SDS011;4703;48.748;19.142;2023-02-15T06:51:17;25.23;;;16.30;;
9328;SDS011;4703;48.748;19.142;2023-02-15T06:53:45;24.37;;;17.03;;
9328;SDS011;4703;48.748;19.142;2023-02-15T06:56:12;27.50;;;17.17;;
9328;SDS011;4703;48.748;19.142;2023-02-15T06:58:40;28.10;;;17.20;;
9328;SDS011;4703;48.748;19.142;2023-02-15T07:01:08;29.13;;;17.43;;
9328;SDS011;4703;48.748;19.142;2023-02-15T07:03:35;27.80;;;17.80;;
9328;SDS011;4703;48.748;19.142;2023-02-15T07:06:03;26.07;;;16.00;;
9328;SDS011;4703;48.748;19.142;2023-02-15T07:08:34;24.60;;;16.07;;
9328;SDS011;4703;48.748;19.142;2023-02-15T07:11:02;27.50;;;17.97;;
9328;SDS011;4703;48.748;19.142;2023-02-15T07:13:49;24.80;;;16.30;;
9328;SDS011;4703;48.748;19.142;2023-02-15T07:16:16;28.27;;;16.33;;
9328;SDS011;4703;48.748;19.142;2023-02-15T07:18:42;23.50;;;15.87;;
9328;SDS011;4703;48.748;19.142;2023-02-15T07:21:10;20.90;;;14.40;;
9328;SDS011;4703;48.748;19.142;2023-02-15T07:23:37;24.93;;;14.63;;
9328;SDS011;4703;48.748;19.142;2023-02-15T07:26:06;24.30;;;15.10;;
9328;SDS011;4703;48.748;19.142;2023-02-15T07:28:33;26.87;;;15.63;;
9328;SDS011;4703;48.748;19.142;2023-02-15T07:31:01;20.70;;;14.80;;
9328;SDS011;4703;48.748;19.142;2023-02-15T07:33:30;30.73;;;17.20;;
9328;SDS011;4703;48.748;19.142;2023-02-15T07:35:58;21.23;;;14.50;;
9328;SDS011;4703;48.748;19.142;2023-02-15T07:38:33;18.47;;;13.70;;
9328;SDS011;4703;48.748;19.142;2023-02-15T07:41:06;22.77;;;13.87;;
9328;SDS011;4703;48.748;19.142;2023-02-15T07:43:36;25.00;;;14.00;;
9328;SDS011;4703;48.748;19.142;2023-02-15T07:46:07;20.33;;;14.20;;
9328;SDS011;4703;48.748;19.142;2023-02-15T07:48:38;22.33;;;12.87;;
9328;SDS011;4703;48.748;19.142;2023-02-15T07:51:06;15.73;;;12.10;;
9328;SDS011;4703;48.748;19.142;2023-02-15T07:53:35;21.93;;;12.90;;
9328;SDS011;4703;48.748;19.142;2023-02-15T07:56:04;22.80;;;15.00;;
9328;SDS011;4703;48.748;19.142;2023-02-15T07:58:36;23.10;;;16.27;;
9328;SDS011;4703;48.748;19.142;2023-02-15T08:01:23;20.40;;;13.67;;
9328;SDS011;4703;48.748;19.142;2023-02-15T08:04:02;20.80;;;13.67;;
9328;SDS011;4703;48.748;19.142;2023-02-15T08:06:31;23.90;;;14.13;;
9328;SDS011;4703;48.748;19.142;2023-02-15T08:09:03;23.20;;;14.93;;
9328;SDS011;4703;48.748;19.142;2023-02-15T08:11:33;15.77;;;12.13;;
9328;SDS011;4703;48.748;19.142;2023-02-15T08:14:13;24.37;;;14.90;;
9328;SDS011;4703;48.748;19.142;2023-02-15T08:21:52;22.07;;;13.60;;
9328;SDS011;4703;48.748;19.142;2023-02-15T08:24:24;16.60;;;12.00;;
9328;SDS011;4703;48.748;19.142;2023-02-15T08:26:55;17.63;;;11.27;;
9328;SDS011;4703;48.748;19.142;2023-02-15T08:29:23;17.23;;;13.00;;
9328;SDS011;4703;48.748;19.142;2023-02-15T08:31:54;19.80;;;12.77;;
9328;SDS011;4703;48.748;19.142;2023-02-15T08:34:29;16.03;;;11.57;;
9328;SDS011;4703;48.748;19.142;2023-02-15T08:37:00;27.47;;;12.00;;
9328;SDS011;4703;48.748;19.142;2023-02-15T08:39:27;14.93;;;12.10;;
9328;SDS011;4703;48.748;19.142;2023-02-15T08:41:55;11.73;;;9.90;;
9328;SDS011;4703;48.748;19.142;2023-02-15T08:44:22;17.30;;;10.57;;
9328;SDS011;4703;48.748;19.142;2023-02-15T08:46:49;15.80;;;10.87;;
9328;SDS011;4703;48.748;19.142;2023-02-15T08:49:22;15.53;;;12.17;;
9328;SDS011;4703;48.748;19.142;2023-02-15T08:51:50;19.03;;;13.53;;
9328;SDS011;4703;48.748;19.142;2023-02-15T08:54:18;13.77;;;11.23;;
9328;SDS011;4703;48.748;19.142;2023-02-15T08:56:47;14.83;;;11.30;;
9328;SDS011;4703;48.748;19.142;2023-02-15T08:59:19;18.20;;;12.53;;
9328;SDS011;4703;48.748;19.142;2023-02-15T09:01:48;17.30;;;12.60;;
9328;SDS011;4703;48.748;19.142;2023-02-15T09:04:18;17.27;;;12.37;;
9328;SDS011;4703;48.748;19.142;2023-02-15T09:06:47;19.10;;;14.43;;
9328;SDS011;4703;48.748;19.142;2023-02-15T09:09:16;19.43;;;12.93;;
9328;SDS011;4703;48.748;19.142;2023-02-15T09:11:46;17.80;;;12.13;;
9328;SDS011;4703;48.748;19.142;2023-02-15T09:14:22;16.87;;;12.77;;
9328;SDS011;4703;48.748;19.142;2023-02-15T09:16:51;17.73;;;12.40;;
9328;SDS011;4703;48.748;19.142;2023-02-15T09:19:20;16.57;;;12.73;;
9328;SDS011;4703;48.748;19.142;2023-02-15T09:21:48;13.27;;;11.47;;
9328;SDS011;4703;48.748;19.142;2023-02-15T09:24:16;17.97;;;12.30;;
9328;SDS011;4703;48.748;19.142;2023-02-15T09:26:45;22.80;;;16.50;;
9328;SDS011;4703;48.748;19.142;2023-02-15T09:29:14;18.17;;;14.37;;
9328;SDS011;4703;48.748;19.142;2023-02-15T09:31:44;19.90;;;14.30;;
9328;SDS011;4703;48.748;19.142;2023-02-15T09:34:16;16.97;;;12.53;;
9328;SDS011;4703;48.748;19.142;2023-02-15T09:36:46;19.40;;;14.60;;
9328;SDS011;4703;48.748;19.142;2023-02-15T09:39:15;19.60;;;14.70;;
9328;SDS011;4703;48.748;19.142;2023-02-15T09:45:12;16.93;;;12.60;;
9328;SDS011;4703;48.748;19.142;2023-02-15T09:54:04;13.07;;;9.67;;
9328;SDS011;4703;48.748;19.142;2023-02-15T09:56:57;13.63;;;9.20;;
9328;SDS011;4703;48.748;19.142;2023-02-15T09:59:40;22.63;;;16.80;;
9328;SDS011;4703;48.748;19.142;2023-02-15T10:02:24;46.30;;;33.03;;
9328;SDS011;4703;48.748;19.142;2023-02-15T10:05:20;15.40;;;12.73;;
9328;SDS011;4703;48.748;19.142;2023-02-15T10:14:13;12.50;;;11.07;;
9328;SDS011;4703;48.748;19.142;2023-02-15T10:28:42;12.60;;;10.53;;
9328;SDS011;4703;48.748;19.142;2023-02-15T10:52:21;10.40;;;9.20;;
9328;SDS011;4703;48.748;19.142;2023-02-15T11:06:30;15.13;;;11.40;;
9328;SDS011;4703;48.748;19.142;2023-02-15T11:09:01;13.20;;;10.53;;
9328;SDS011;4703;48.748;19.142;2023-02-15T11:11:36;16.70;;;14.20;;
9328;SDS011;4703;48.748;19.142;2023-02-15T11:17:09;23.57;;;18.83;;
9328;SDS011;4703;48.748;19.142;2023-02-15T11:19:51;25.30;;;22.27;;
9328;SDS011;4703;48.748;19.142;2023-02-15T11:22:29;22.00;;;17.30;;
9328;SDS011;4703;48.748;19.142;2023-02-15T11:24:58;17.50;;;13.97;;
9328;SDS011;4703;48.748;19.142;2023-02-15T11:27:29;14.77;;;13.37;;
9328;SDS011;4703;48.748;19.142;2023-02-15T11:30:09;13.90;;;12.50;;
9328;SDS011;4703;48.748;19.142;2023-02-15T11:32:43;16.20;;;14.60;;
9328;SDS011;4703;48.748;19.142;2023-02-15T11:38:18;12.37;;;11.07;;
9328;SDS011;4703;48.748;19.142;2023-02-15T11:40:55;11.90;;;10.63;;
9328;SDS011;4703;48.748;19.142;2023-02-15T11:46:27;8.73;;;7.93;;
9328;SDS011;4703;48.748;19.142;2023-02-15T11:48:55;15.13;;;13.53;;
9328;SDS011;4703;48.748;19.142;2023-02-15T11:51:22;20.50;;;17.70;;
9328;SDS011;4703;48.748;19.142;2023-02-15T11:53:49;26.37;;;21.63;;
9328;SDS011;4703;48.748;19.142;2023-02-15T11:56:24;10.93;;;8.90;;
9328;SDS011;4703;48.748;19.142;2023-02-15T11:58:54;10.50;;;9.47;;
9328;SDS011;4703;48.748;19.142;2023-02-15T12:07:13;9.53;;;8.70;;
9328;SDS011;4703;48.748;19.142;2023-02-15T12:12:48;11.50;;;10.37;;
9328;SDS011;4703;48.748;19.142;2023-02-15T12:15:37;11.23;;;10.03;;
9328;SDS011;4703;48.748;19.142;2023-02-15T12:21:11;11.50;;;10.30;;
9328;SDS011;4703;48.748;19.142;2023-02-15T12:23:51;10.50;;;9.40;;
9328;SDS011;4703;48.748;19.142;2023-02-15T12:26:24;10.53;;;9.40;;
9328;SDS011;4703;48.748;19.142;2023-02-15T12:28:56;10.77;;;9.67;;
9328;SDS011;4703;48.748;19.142;2023-02-15T12:31:31;10.80;;;9.63;;
9328;SDS011;4703;48.748;19.142;2023-02-15T12:34:07;10.47;;;9.47;;
9328;SDS011;4703;48.748;19.142;2023-02-15T12:36:43;19.10;;;17.17;;
9328;SDS011;4703;48.748;19.142;2023-02-15T12:39:35;10.93;;;9.73;;
9328;SDS011;4703;48.748;19.142;2023-02-15T12:42:14;11.10;;;8.60;;
9328;SDS011;4703;48.748;19.142;2023-02-15T12:50:48;10.57;;;8.83;;
9328;SDS011;4703;48.748;19.142;2023-02-15T12:53:22;10.40;;;8.40;;
9328;SDS011;4703;48.748;19.142;2023-02-15T12:56:02;10.70;;;9.60;;
9328;SDS011;4703;48.748;19.142;2023-02-15T13:01:15;8.70;;;7.90;;
9328;SDS011;4703;48.748;19.142;2023-02-15T13:03:54;8.93;;;8.03;;
9328;SDS011;4703;48.748;19.142;2023-02-15T13:06:28;8.50;;;7.70;;
9328;SDS011;4703;48.748;19.142;2023-02-15T13:11:43;9.80;;;8.67;;
9328;SDS011;4703;48.748;19.142;2023-02-15T13:16:56;9.23;;;8.30;;
9328;SDS011;4703;48.748;19.142;2023-02-15T13:22:05;9.77;;;8.40;;
9328;SDS011;4703;48.748;19.142;2023-02-15T13:24:57;8.57;;;7.77;;
9328;SDS011;4703;48.748;19.142;2023-02-15T13:27:34;9.00;;;8.03;;
9328;SDS011;4703;48.748;19.142;2023-02-15T13:30:26;9.60;;;8.70;;
9328;SDS011;4703;48.748;19.142;2023-02-15T13:33:00;9.60;;;8.00;;
9328;SDS011;4703;48.748;19.142;2023-02-15T13:38:45;9.53;;;8.43;;
9328;SDS011;4703;48.748;19.142;2023-02-15T13:41:49;11.40;;;8.93;;
9328;SDS011;4703;48.748;19.142;2023-02-15T14:15:02;9.30;;;8.30;;
9328;SDS011;4703;48.748;19.142;2023-02-15T14:20:58;13.13;;;10.17;;
9328;SDS011;4703;48.748;19.142;2023-02-15T14:23:33;12.70;;;10.07;;
9328;SDS011;4703;48.748;19.142;2023-02-15T14:26:21;10.50;;;9.40;;
9328;SDS011;4703;48.748;19.142;2023-02-15T14:32:39;10.13;;;8.63;;
9328;SDS011;4703;48.748;19.142;2023-02-15T14:35:15;9.50;;;8.20;;
9328;SDS011;4703;48.748;19.142;2023-02-15T14:40:40;9.90;;;8.83;;
9328;SDS011;4703;48.748;19.142;2023-02-15T14:46:37;11.40;;;10.20;;
9328;SDS011;4703;48.748;19.142;2023-02-15T14:49:37;12.53;;;10.50;;
9328;SDS011;4703;48.748;19.142;2023-02-15T14:52:10;13.60;;;10.60;;
9328;SDS011;4703;48.748;19.142;2023-02-15T15:02:44;11.67;;;10.10;;
9328;SDS011;4703;48.748;19.142;2023-02-15T15:05:24;14.20;;;10.17;;
9328;SDS011;4703;48.748;19.142;2023-02-15T15:08:01;12.67;;;9.40;;
9328;SDS011;4703;48.748;19.142;2023-02-15T15:10:35;13.73;;;11.13;;
9328;SDS011;4703;48.748;19.142;2023-02-15T15:15:56;20.17;;;13.60;;
9328;SDS011;4703;48.748;19.142;2023-02-15T15:18:54;19.33;;;14.00;;
9328;SDS011;4703;48.748;19.142;2023-02-15T15:30:50;17.23;;;14.93;;
9328;SDS011;4703;48.748;19.142;2023-02-15T15:50:45;31.43;;;22.73;;
9328;SDS011;4703;48.748;19.142;2023-02-15T15:53:19;28.10;;;23.27;;
9328;SDS011;4703;48.748;19.142;2023-02-15T15:55:52;26.90;;;23.30;;
9328;SDS011;4703;48.748;19.142;2023-02-15T15:58:27;30.00;;;24.83;;
9328;SDS011;4703;48.748;19.142;2023-02-15T16:03:48;30.90;;;26.17;;
9328;SDS011;4703;48.748;19.142;2023-02-15T16:06:27;32.73;;;26.73;;
9328;SDS011;4703;48.748;19.142;2023-02-15T16:09:11;27.33;;;24.10;;
9328;SDS011;4703;48.748;19.142;2023-02-15T16:11:50;29.83;;;24.87;;
9328;SDS011;4703;48.748;19.142;2023-02-15T16:14:37;33.70;;;28.20;;
9328;SDS011;4703;48.748;19.142;2023-02-15T16:17:08;32.60;;;26.30;;
9328;SDS011;4703;48.748;19.142;2023-02-15T16:19:46;32.70;;;27.57;;
9328;SDS011;4703;48.748;19.142;2023-02-15T16:22:15;29.27;;;22.87;;
9328;SDS011;4703;48.748;19.142;2023-02-15T16:30:15;25.93;;;21.33;;
9328;SDS011;4703;48.748;19.142;2023-02-15T16:32:45;29.57;;;21.77;;
9328;SDS011;4703;48.748;19.142;2023-02-15T16:35:13;30.63;;;23.60;;
9328;SDS011;4703;48.748;19.142;2023-02-15T16:37:43;30.63;;;22.30;;
9328;SDS011;4703;48.748;19.142;2023-02-15T16:40:57;27.70;;;21.33;;
9328;SDS011;4703;48.748;19.142;2023-02-15T16:43:23;25.07;;;19.90;;
9328;SDS011;4703;48.748;19.142;2023-02-15T16:45:53;24.93;;;21.10;;
9328;SDS011;4703;48.748;19.142;2023-02-15T16:48:31;26.27;;;19.60;;
9328;SDS011;4703;48.748;19.142;2023-02-15T16:51:00;22.57;;;18.93;;
9328;SDS011;4703;48.748;19.142;2023-02-15T16:53:28;21.90;;;17.47;;
9328;SDS011;4703;48.748;19.142;2023-02-15T16:55:59;22.90;;;18.10;;
9328;SDS011;4703;48.748;19.142;2023-02-15T16:58:31;20.17;;;16.00;;
9328;SDS011;4703;48.748;19.142;2023-02-15T17:01:13;18.80;;;14.37;;
9328;SDS011;4703;48.748;19.142;2023-02-15T17:03:41;17.63;;;14.90;;
9328;SDS011;4703;48.748;19.142;2023-02-15T17:06:19;21.23;;;17.00;;
9328;SDS011;4703;48.748;19.142;2023-02-15T17:08:47;20.63;;;16.00;;
9328;SDS011;4703;48.748;19.142;2023-02-15T17:11:16;19.27;;;15.20;;
9328;SDS011;4703;48.748;19.142;2023-02-15T17:16:33;21.07;;;15.60;;
9328;SDS011;4703;48.748;19.142;2023-02-15T17:19:47;20.60;;;16.10;;
9328;SDS011;4703;48.748;19.142;2023-02-15T17:22:05;20.67;;;15.93;;
9328;SDS011;4703;48.748;19.142;2023-02-15T17:24:42;21.50;;;15.47;;
9328;SDS011;4703;48.748;19.142;2023-02-15T17:27:16;18.67;;;15.80;;
9328;SDS011;4703;48.748;19.142;2023-02-15T17:29:44;24.10;;;17.33;;
9328;SDS011;4703;48.748;19.142;2023-02-15T17:32:22;21.73;;;16.60;;
9328;SDS011;4703;48.748;19.142;2023-02-15T17:35:08;22.90;;;16.90;;
9328;SDS011;4703;48.748;19.142;2023-02-15T17:40:36;17.90;;;16.00;;
9328;SDS011;4703;48.748;19.142;2023-02-15T17:43:03;21.77;;;16.40;;
9328;SDS011;4703;48.748;19.142;2023-02-15T17:45:35;21.80;;;15.40;;
9328;SDS011;4703;48.748;19.142;2023-02-15T17:48:09;22.83;;;16.33;;
9328;SDS011;4703;48.748;19.142;2023-02-15T17:51:01;22.13;;;15.80;;
9328;SDS011;4703;48.748;19.142;2023-02-15T17:53:31;22.90;;;17.23;;
9328;SDS011;4703;48.748;19.142;2023-02-15T17:55:58;24.17;;;17.40;;
9328;SDS011;4703;48.748;19.142;2023-02-15T17:58:25;24.93;;;18.67;;
9328;SDS011;4703;48.748;19.142;2023-02-15T18:00:54;22.60;;;18.07;;
9328;SDS011;4703;48.748;19.142;2023-02-15T18:03:48;22.27;;;17.17;;
9328;SDS011;4703;48.748;19.142;2023-02-15T18:06:37;20.57;;;15.73;;
9328;SDS011;4703;48.748;19.142;2023-02-15T18:09:25;22.60;;;16.03;;
9328;SDS011;4703;48.748;19.142;2023-02-15T18:12:21;26.67;;;17.27;;
9328;SDS011;4703;48.748;19.142;2023-02-15T18:14:51;18.80;;;16.80;;
9328;SDS011;4703;48.748;19.142;2023-02-15T18:20:00;22.23;;;16.20;;
9328;SDS011;4703;48.748;19.142;2023-02-15T18:22:31;22.23;;;15.60;;
9328;SDS011;4703;48.748;19.142;2023-02-15T18:24:59;21.60;;;15.70;;
9328;SDS011;4703;48.748;19.142;2023-02-15T18:27:26;19.30;;;14.37;;
9328;SDS011;4703;48.748;19.142;2023-02-15T18:29:53;16.77;;;13.90;;
9328;SDS011;4703;48.748;19.142;2023-02-15T18:32:26;19.00;;;14.20;;
9328;SDS011;4703;48.748;19.142;2023-02-15T18:35:01;34.17;;;21.10;;
9328;SDS011;4703;48.748;19.142;2023-02-15T18:37:30;24.07;;;18.43;;
9328;SDS011;4703;48.748;19.142;2023-02-15T18:39:58;22.90;;;17.70;;
9328;SDS011;4703;48.748;19.142;2023-02-15T18:42:27;21.53;;;17.27;;
9328;SDS011;4703;48.748;19.142;2023-02-15T18:44:58;23.77;;;16.13;;
9328;SDS011;4703;48.748;19.142;2023-02-15T18:47:44;21.60;;;15.40;;
9328;SDS011;4703;48.748;19.142;2023-02-15T18:50:13;20.17;;;15.73;;
9328;SDS011;4703;48.748;19.142;2023-02-15T18:52:42;21.00;;;16.40;;
9328;SDS011;4703;48.748;19.142;2023-02-15T18:55:15;21.70;;;15.50;;
9328;SDS011;4703;48.748;19.142;2023-02-15T18:57:54;20.33;;;16.70;;
9328;SDS011;4703;48.748;19.142;2023-02-15T19:00:23;23.53;;;17.47;;
9328;SDS011;4703;48.748;19.142;2023-02-15T19:02:57;18.83;;;16.20;;